Terminal Aerodrome Forecast
Issued by NWS

Home | Current Version | Previous Version | Text Only | Print | Product List | Glossary On
Versions: 1 2 3 4 5 6 7 8 9 10 11 12 13 14 15 16 17 18 19 20 21 22 23
000
FTUS43 KMQT 191100
TAFSAW
TAF
KSAW 191136Z 1912/2012 16004KT P6SM BKN100
     FM191500 17011G17KT P6SM BKN080
     FM191800 18018G25KT P6SM BKN080
     FM200200 18012KT 6SM -SHRA OVC050 WS010/20040KT
     FM200700 18010KT P6SM BKN025
     FM201000 20007KT 3SM BR BKN025
      AMD LTD TO CLD VIS AND WIND 2002/2010=

USA.gov is the U.S. government's official web portal to all federal, state and local government web resources and services.